createdAt,value
2017-10-18T00:02:11.978Z,14.22
2017-10-18T00:04:39.467Z,14.24
2017-10-18T00:07:07.007Z,14.25
2017-10-18T00:09:34.504Z,14.26
2017-10-18T00:12:01.999Z,14.25
2017-10-18T00:14:29.522Z,14.21
2017-10-18T00:16:57.080Z,14.09
2017-10-18T00:19:24.567Z,13.93
2017-10-18T00:21:52.116Z,13.83
2017-10-18T00:24:19.685Z,13.80
2017-10-18T00:26:47.176Z,13.76
2017-10-18T00:29:14.715Z,13.74
2017-10-18T00:31:42.260Z,13.74
2017-10-18T00:34:09.763Z,13.75
2017-10-18T00:36:37.284Z,13.81
2017-10-18T00:39:04.775Z,13.86
2017-10-18T00:41:32.271Z,13.89
2017-10-18T00:43:59.783Z,13.94
2017-10-18T00:46:27.279Z,13.95
2017-10-18T00:48:54.779Z,13.94
2017-10-18T00:51:22.307Z,13.91
2017-10-18T00:53:49.817Z,13.87
2017-10-18T00:56:17.308Z,13.83
2017-10-18T00:58:44.844Z,13.81
2017-10-18T01:01:12.343Z,13.77
2017-10-18T01:03:39.837Z,13.73
2017-10-18T01:06:07.472Z,13.72
2017-10-18T01:08:34.977Z,13.73
2017-10-18T01:11:02.469Z,13.75
2017-10-18T01:13:29.997Z,13.75
2017-10-18T01:15:57.483Z,13.75
2017-10-18T01:18:24.979Z,13.75
2017-10-18T01:20:52.521Z,13.72
2017-10-18T01:23:20.016Z,13.68
2017-10-18T01:25:47.512Z,13.66
2017-10-18T01:28:15.043Z,13.66
2017-10-18T01:30:42.551Z,13.66
2017-10-18T01:33:10.041Z,13.66
2017-10-18T01:35:37.576Z,13.67
2017-10-18T01:38:05.066Z,13.68
2017-10-18T01:40:32.555Z,13.71
2017-10-18T01:43:00.084Z,13.68
2017-10-18T01:45:27.572Z,13.63
2017-10-18T01:47:55.165Z,13.56
2017-10-18T01:50:22.687Z,13.46
2017-10-18T01:52:50.182Z,13.41
2017-10-18T01:55:17.729Z,13.39
2017-10-18T01:57:45.279Z,13.38
2017-10-18T02:00:12.776Z,13.39
2017-10-18T02:02:40.271Z,13.41
2017-10-18T02:05:07.809Z,13.43
2017-10-18T02:07:35.335Z,13.45
2017-10-18T02:10:02.828Z,13.45
2017-10-18T02:12:30.349Z,13.45
2017-10-18T02:14:57.850Z,13.44
2017-10-18T02:17:25.349Z,13.43
2017-10-18T02:19:52.883Z,13.44
2017-10-18T02:22:20.371Z,13.44
2017-10-18T02:24:47.858Z,13.44
2017-10-18T02:27:15.391Z,13.44
2017-10-18T02:29:42.883Z,13.41
2017-10-18T02:32:10.376Z,13.36
2017-10-18T02:34:37.911Z,13.32
2017-10-18T02:37:05.428Z,13.33
2017-10-18T02:39:32.923Z,13.31
2017-10-18T02:42:00.439Z,13.30
2017-10-18T02:44:27.943Z,13.29
2017-10-18T02:46:55.436Z,13.23
2017-10-18T02:49:22.987Z,13.18
2017-10-18T02:51:50.548Z,13.14
2017-10-18T02:54:18.045Z,13.11
2017-10-18T02:56:45.697Z,13.08
2017-10-18T02:59:13.193Z,13.09
2017-10-18T03:01:40.684Z,13.07
2017-10-18T03:04:08.214Z,13.04
2017-10-18T03:06:35.703Z,12.97
2017-10-18T03:09:03.201Z,12.90
2017-10-18T03:11:30.726Z,12.82
2017-10-18T03:13:58.213Z,12.76
2017-10-18T03:16:25.709Z,12.69
2017-10-18T03:18:53.233Z,12.65
2017-10-18T03:21:20.728Z,12.62
2017-10-18T03:23:48.228Z,12.56
2017-10-18T03:26:15.751Z,12.53
2017-10-18T03:28:43.251Z,12.49
2017-10-18T03:31:10.811Z,12.44
2017-10-18T03:33:38.308Z,12.42
2017-10-18T03:36:05.822Z,12.40
2017-10-18T03:38:33.347Z,12.39
2017-10-18T03:41:00.940Z,12.36
2017-10-18T03:43:28.503Z,12.38
2017-10-18T03:45:56.033Z,12.41
2017-10-18T03:48:23.550Z,12.41
2017-10-18T03:50:51.080Z,12.37
2017-10-18T03:53:18.601Z,12.36
2017-10-18T03:55:46.097Z,12.34
2017-10-18T03:58:13.637Z,12.30
2017-10-18T04:00:41.128Z,12.32
2017-10-18T04:03:08.623Z,12.34
2017-10-18T04:05:36.164Z,12.34
2017-10-18T04:08:03.655Z,12.36
2017-10-18T04:10:31.148Z,12.41
2017-10-18T04:12:58.675Z,12.41
2017-10-18T04:15:26.171Z,12.36
2017-10-18T04:17:53.670Z,12.33
2017-10-18T04:20:21.283Z,12.30
2017-10-18T04:22:48.776Z,12.30
2017-10-18T04:25:16.272Z,12.31
2017-10-18T04:27:43.800Z,12.31
2017-10-18T04:30:11.292Z,12.31
2017-10-18T04:32:38.788Z,12.32
2017-10-18T04:35:06.322Z,12.34
2017-10-18T04:37:33.903Z,12.36
2017-10-18T04:40:01.445Z,12.36
2017-10-18T04:42:28.984Z,12.39
2017-10-18T04:44:56.543Z,12.43
2017-10-18T04:47:24.045Z,12.46
2017-10-18T04:49:51.568Z,12.47
2017-10-18T04:52:19.064Z,12.45
2017-10-18T04:54:46.559Z,12.42
2017-10-18T04:57:14.105Z,12.40
2017-10-18T04:59:41.606Z,12.40
2017-10-18T05:02:09.103Z,12.36
2017-10-18T05:04:36.641Z,12.33
2017-10-18T05:07:04.142Z,12.30
2017-10-18T05:09:31.627Z,12.30
2017-10-18T05:11:59.168Z,12.29
2017-10-18T05:14:26.657Z,12.29
2017-10-18T05:16:54.155Z,12.28
2017-10-18T05:19:21.684Z,12.27
2017-10-18T05:21:49.187Z,12.24
2017-10-18T05:24:16.676Z,12.20
2017-10-18T05:26:44.204Z,12.16
2017-10-18T05:29:11.695Z,12.15
2017-10-18T05:31:39.268Z,12.14
2017-10-18T05:34:06.831Z,12.14
2017-10-18T05:36:34.332Z,12.16
2017-10-18T05:39:01.838Z,12.19
2017-10-18T05:41:29.372Z,12.18
2017-10-18T05:43:56.864Z,12.18
2017-10-18T05:46:24.359Z,12.15
2017-10-18T05:48:51.904Z,12.22
2017-10-18T05:51:19.408Z,12.26
2017-10-18T05:53:46.960Z,12.27
2017-10-18T05:56:14.488Z,12.31
2017-10-18T05:58:41.983Z,12.36
2017-10-18T06:01:09.488Z,12.42
2017-10-18T06:03:37.042Z,12.44
2017-10-18T06:06:04.527Z,12.45
2017-10-18T06:08:32.062Z,12.46
2017-10-18T06:10:59.708Z,12.50
2017-10-18T06:13:27.200Z,12.52
2017-10-18T06:15:54.723Z,12.53
2017-10-18T06:18:22.268Z,12.55
2017-10-18T06:20:49.760Z,12.52
2017-10-18T06:23:17.255Z,12.54
2017-10-18T06:25:44.787Z,12.60
2017-10-18T06:28:12.280Z,12.65
2017-10-18T06:30:39.784Z,12.69
2017-10-18T06:33:07.322Z,12.69
2017-10-18T06:35:34.820Z,12.73
2017-10-18T06:38:02.317Z,12.76
2017-10-18T06:40:29.871Z,12.81
2017-10-18T06:42:57.371Z,12.87
2017-10-18T06:45:24.859Z,12.91
2017-10-18T06:47:52.393Z,12.93
2017-10-18T06:50:19.896Z,12.92
2017-10-18T06:52:47.396Z,12.95
2017-10-18T06:55:14.950Z,12.99
2017-10-18T06:57:42.444Z,13.03
2017-10-18T07:00:09.977Z,13.07
2017-10-18T07:02:37.501Z,13.12
2017-10-18T07:05:05.085Z,13.22
2017-10-18T07:07:32.643Z,13.29
2017-10-18T07:10:00.128Z,13.35
2017-10-18T07:12:27.655Z,13.40
2017-10-18T07:14:55.144Z,13.45
2017-10-18T07:17:22.637Z,13.52
2017-10-18T07:19:50.162Z,13.61
2017-10-18T07:22:17.662Z,13.69
2017-10-18T07:24:45.256Z,13.69
2017-10-18T07:27:12.752Z,13.68
2017-10-18T07:29:40.243Z,13.64
2017-10-18T07:32:07.783Z,13.70
2017-10-18T07:34:35.295Z,13.79
2017-10-18T07:37:02.850Z,13.85
2017-10-18T07:39:30.387Z,13.95
2017-10-18T07:41:57.958Z,13.99
2017-10-18T07:44:25.457Z,14.01
2017-10-18T07:46:52.986Z,14.02
2017-10-18T07:49:20.544Z,14.00
2017-10-18T07:51:48.040Z,14.03
2017-10-18T07:54:15.656Z,14.07
2017-10-18T07:56:43.160Z,14.19
2017-10-18T07:59:10.663Z,14.22
2017-10-18T08:01:38.845Z,14.26
2017-10-18T08:04:06.333Z,14.27
2017-10-18T08:06:33.834Z,14.35
2017-10-18T08:09:01.384Z,14.43
2017-10-18T08:11:28.890Z,14.55
2017-10-18T08:13:56.387Z,14.62
2017-10-18T08:16:23.900Z,14.76
2017-10-18T08:18:51.397Z,14.89
2017-10-18T08:21:18.919Z,15.01
2017-10-18T08:23:46.475Z,15.12
2017-10-18T08:26:14.035Z,15.19
2017-10-18T08:28:41.570Z,15.31
2017-10-18T08:31:09.066Z,15.35
2017-10-18T08:33:36.563Z,15.35
2017-10-18T08:36:04.174Z,15.34
2017-10-18T08:38:31.670Z,15.38
2017-10-18T08:40:59.160Z,15.47
2017-10-18T08:43:26.692Z,15.62
2017-10-18T08:45:54.185Z,15.78
2017-10-18T08:48:21.959Z,15.91
2017-10-18T08:50:49.536Z,15.96
2017-10-18T08:53:17.033Z,15.96
2017-10-18T08:55:44.526Z,16.14
2017-10-18T08:58:12.042Z,16.33
2017-10-18T09:00:39.564Z,16.52
2017-10-18T09:03:07.063Z,16.68
2017-10-18T09:05:34.588Z,16.82
2017-10-18T09:08:02.088Z,16.93
2017-10-18T09:10:29.580Z,16.99
2017-10-18T09:12:57.119Z,17.22
2017-10-18T09:15:24.620Z,17.48
2017-10-18T09:17:52.111Z,17.53
2017-10-18T09:20:19.635Z,17.23
2017-10-18T09:22:47.124Z,17.02
2017-10-18T09:25:14.644Z,17.00
2017-10-18T09:27:42.134Z,17.10
2017-10-18T09:30:09.654Z,17.20
2017-10-18T09:32:37.195Z,17.33
2017-10-18T09:35:04.790Z,17.44
2017-10-18T09:37:32.288Z,17.25
2017-10-18T09:39:59.823Z,17.29
2017-10-18T09:42:27.311Z,17.40
2017-10-18T09:44:54.800Z,17.55
2017-10-18T09:47:22.331Z,17.64
2017-10-18T09:49:49.829Z,17.68
2017-10-18T09:52:17.319Z,17.57
2017-10-18T09:54:44.845Z,17.31
2017-10-18T09:57:12.340Z,17.29
2017-10-18T09:59:39.859Z,17.36
2017-10-18T10:02:07.373Z,17.60
2017-10-18T10:04:34.868Z,17.49
2017-10-18T10:07:02.405Z,17.54
2017-10-18T10:09:29.998Z,17.58
2017-10-18T10:11:57.501Z,17.81
2017-10-18T10:14:25.103Z,17.90
2017-10-18T10:16:52.601Z,17.84
2017-10-18T10:19:20.098Z,17.87
2017-10-18T10:21:47.637Z,17.95
2017-10-18T10:24:15.135Z,18.07
2017-10-18T10:26:42.628Z,18.09
2017-10-18T10:29:10.159Z,18.05
2017-10-18T10:31:37.650Z,18.16
2017-10-18T10:34:05.144Z,18.25
2017-10-18T10:36:32.743Z,18.15
2017-10-18T10:39:00.301Z,18.12
2017-10-18T10:41:27.791Z,18.06
2017-10-18T10:43:55.414Z,17.94
2017-10-18T10:46:22.968Z,18.04
2017-10-18T10:48:50.468Z,18.22
2017-10-18T10:51:17.988Z,18.29
2017-10-18T10:53:45.479Z,18.25
2017-10-18T10:56:12.967Z,18.19
2017-10-18T10:58:40.488Z,18.28
2017-10-18T11:01:07.986Z,18.49
2017-10-18T11:03:35.561Z,18.61
2017-10-18T11:06:03.055Z,18.64
2017-10-18T11:08:30.538Z,18.70
2017-10-18T11:10:58.098Z,18.70
2017-10-18T11:13:25.608Z,18.61
2017-10-18T11:15:53.104Z,18.46
2017-10-18T11:18:20.636Z,18.61
2017-10-18T11:20:48.132Z,18.80
2017-10-18T11:23:15.627Z,18.94
2017-10-18T11:25:43.155Z,18.94
2017-10-18T11:28:10.645Z,18.94
2017-10-18T11:30:38.132Z,18.92
2017-10-18T11:33:05.779Z,19.02
2017-10-18T11:35:33.347Z,19.03
2017-10-18T11:38:00.836Z,19.02
2017-10-18T11:40:28.580Z,19.08
2017-10-18T11:42:56.072Z,19.11
2017-10-18T11:45:23.561Z,19.19
2017-10-18T11:47:51.104Z,19.16
2017-10-18T11:50:18.603Z,19.04
2017-10-18T11:52:46.091Z,18.93
2017-10-18T11:55:13.715Z,18.95
2017-10-18T11:57:41.208Z,18.99
2017-10-18T12:00:08.701Z,18.79
2017-10-18T12:02:36.236Z,18.84
2017-10-18T12:05:03.732Z,18.87
2017-10-18T12:07:31.302Z,18.94
2017-10-18T12:09:58.844Z,18.83
2017-10-18T12:12:26.337Z,18.85
2017-10-18T12:14:53.831Z,18.89
2017-10-18T12:17:21.375Z,19.03
2017-10-18T12:19:48.864Z,19.07
2017-10-18T12:22:16.372Z,18.94
2017-10-18T12:24:43.908Z,18.94
2017-10-18T12:27:11.400Z,18.99
2017-10-18T12:29:38.899Z,18.91
2017-10-18T12:32:06.416Z,18.81
2017-10-18T12:34:33.927Z,18.66
2017-10-18T12:37:01.467Z,18.73
2017-10-18T12:39:28.964Z,18.80
2017-10-18T12:41:56.518Z,18.79
2017-10-18T12:44:24.098Z,18.71
2017-10-18T12:46:51.647Z,18.70
2017-10-18T12:49:19.140Z,18.76
2017-10-18T12:51:46.678Z,18.88
2017-10-18T12:54:14.170Z,18.95
2017-10-18T12:56:41.667Z,18.94
2017-10-18T12:59:09.183Z,18.81
2017-10-18T13:01:36.684Z,18.75
2017-10-18T13:04:04.214Z,18.83
2017-10-18T13:06:31.804Z,18.78
2017-10-18T13:08:59.298Z,18.80
2017-10-18T13:11:26.852Z,18.85
2017-10-18T13:13:54.355Z,18.94
2017-10-18T13:16:21.860Z,18.99
2017-10-18T13:18:49.417Z,18.95
2017-10-18T13:21:16.911Z,18.96
2017-10-18T13:23:44.407Z,18.83
2017-10-18T13:26:11.972Z,18.82
2017-10-18T13:28:39.541Z,18.77
2017-10-18T13:31:07.042Z,18.83
2017-10-18T13:33:34.671Z,18.98
2017-10-18T13:36:02.160Z,19.08
2017-10-18T13:38:29.656Z,19.13
2017-10-18T13:40:57.252Z,19.12
2017-10-18T13:43:24.755Z,19.11
2017-10-18T13:45:52.263Z,19.06
2017-10-18T13:48:19.801Z,18.94
2017-10-18T13:50:47.291Z,18.92
2017-10-18T13:53:14.783Z,18.87
2017-10-18T13:55:42.331Z,18.81
2017-10-18T13:58:09.840Z,18.79
2017-10-18T14:00:37.339Z,18.77
2017-10-18T14:03:04.872Z,18.77
2017-10-18T14:05:32.370Z,18.76
2017-10-18T14:07:59.877Z,18.76
2017-10-18T14:10:27.431Z,18.71
2017-10-18T14:12:54.931Z,18.63
2017-10-18T14:15:22.431Z,18.51
2017-10-18T14:17:49.972Z,18.49
2017-10-18T14:20:17.569Z,18.44
2017-10-18T14:22:45.101Z,18.41
2017-10-18T14:25:12.640Z,18.38
2017-10-18T14:27:40.238Z,18.50
2017-10-18T14:30:07.736Z,18.69
2017-10-18T14:32:35.263Z,18.84
2017-10-18T14:35:02.765Z,18.85
2017-10-18T14:37:30.256Z,18.79
2017-10-18T14:39:57.771Z,18.74
2017-10-18T14:42:25.336Z,18.71
2017-10-18T14:44:52.836Z,18.70
2017-10-18T14:47:20.328Z,18.70
2017-10-18T14:49:47.972Z,18.70
2017-10-18T14:52:15.469Z,18.67
2017-10-18T14:54:42.967Z,18.62
2017-10-18T14:57:10.561Z,18.56
2017-10-18T14:59:38.077Z,18.50
2017-10-18T15:02:05.604Z,18.50
2017-10-18T15:04:33.241Z,18.54
2017-10-18T15:07:00.787Z,18.54
2017-10-18T15:09:28.295Z,18.42
2017-10-18T15:11:55.782Z,18.37
2017-10-18T15:14:23.353Z,18.19
2017-10-18T15:16:50.925Z,18.08
2017-10-18T15:19:18.415Z,18.00
2017-10-18T15:21:45.956Z,17.95
2017-10-18T15:24:13.456Z,17.92
2017-10-18T15:26:41.051Z,17.82
2017-10-18T15:29:08.587Z,17.73
2017-10-18T15:31:36.081Z,17.62
2017-10-18T15:34:03.572Z,17.55
2017-10-18T15:36:31.107Z,17.51
2017-10-18T15:38:58.612Z,17.46
2017-10-18T15:41:26.103Z,17.40
2017-10-18T15:43:53.635Z,17.32
2017-10-18T15:46:21.125Z,17.28
2017-10-18T15:48:48.614Z,17.21
2017-10-18T15:51:16.177Z,17.19
2017-10-18T15:53:43.677Z,17.10
2017-10-18T15:56:11.175Z,17.02
2017-10-18T15:58:38.911Z,16.95
2017-10-18T16:01:06.401Z,16.91
2017-10-18T16:03:33.904Z,16.91
2017-10-18T16:06:01.465Z,16.95
2017-10-18T16:08:29.028Z,16.94
2017-10-18T16:10:56.529Z,16.89
2017-10-18T16:13:24.091Z,16.81
2017-10-18T16:15:51.624Z,16.77
2017-10-18T16:18:19.119Z,16.70
2017-10-18T16:20:46.669Z,16.64
2017-10-18T16:23:14.181Z,16.58
2017-10-18T16:25:41.669Z,16.58
2017-10-18T16:28:09.216Z,16.60
2017-10-18T16:30:36.713Z,16.63
2017-10-18T16:33:04.225Z,16.58
2017-10-18T16:35:31.743Z,16.49
2017-10-18T16:37:59.266Z,16.47
2017-10-18T16:40:26.756Z,16.43
2017-10-18T16:42:54.387Z,16.42
2017-10-18T16:45:21.883Z,16.38
2017-10-18T16:47:51.540Z,16.35
2017-10-18T16:50:22.034Z,16.28
2017-10-18T16:52:49.812Z,16.20
2017-10-18T16:55:17.318Z,16.16
2017-10-18T16:57:44.903Z,16.12
2017-10-18T17:00:13.576Z,16.07
2017-10-18T17:02:42.777Z,16.03
2017-10-18T17:05:10.332Z,15.94
2017-10-18T17:07:37.831Z,15.91
2017-10-18T17:10:05.324Z,15.88
2017-10-18T17:12:32.852Z,15.82
2017-10-18T17:15:00.338Z,15.78
2017-10-18T17:17:27.827Z,15.73
2017-10-18T17:19:55.351Z,15.71
2017-10-18T17:22:22.839Z,15.70
2017-10-18T17:24:50.447Z,15.68
2017-10-18T17:27:18.006Z,15.65
2017-10-18T17:29:45.571Z,15.59
2017-10-18T17:32:13.066Z,15.50
2017-10-18T17:34:40.560Z,15.39
2017-10-18T17:37:08.119Z,15.30
2017-10-18T17:39:35.620Z,15.24
2017-10-18T17:42:03.116Z,15.24
2017-10-18T17:44:30.640Z,15.17
2017-10-18T17:46:58.134Z,15.14
2017-10-18T17:49:25.621Z,15.13
2017-10-18T17:51:53.164Z,15.11
2017-10-18T17:54:20.658Z,15.07
2017-10-18T17:56:48.215Z,15.01
2017-10-18T17:59:15.733Z,14.98
2017-10-18T18:01:43.232Z,14.85
2017-10-18T18:04:10.882Z,14.78
2017-10-18T18:06:38.372Z,14.68
2017-10-18T18:09:06.029Z,14.64
2017-10-18T18:11:33.568Z,14.63
2017-10-18T18:14:01.055Z,14.56
2017-10-18T18:16:28.546Z,14.50
2017-10-18T18:18:56.140Z,14.49
2017-10-18T18:21:23.640Z,14.45
2017-10-18T18:23:51.164Z,14.43
2017-10-18T18:26:18.695Z,14.37
2017-10-18T18:28:46.189Z,14.31
2017-10-18T18:31:13.684Z,14.27
2017-10-18T18:33:41.275Z,14.22
2017-10-18T18:36:08.770Z,14.25
2017-10-18T18:38:36.262Z,14.21
2017-10-18T18:41:04.096Z,14.16
2017-10-18T18:43:31.601Z,14.12
2017-10-18T18:45:59.195Z,14.10
2017-10-18T18:48:26.773Z,14.10
2017-10-18T18:50:54.328Z,14.07
2017-10-18T18:53:21.822Z,14.04
2017-10-18T18:55:49.538Z,13.98
2017-10-18T18:58:17.039Z,13.94
2017-10-18T19:00:44.557Z,13.90
2017-10-18T19:03:12.075Z,13.86
2017-10-18T19:05:39.576Z,13.83
2017-10-18T19:08:07.090Z,13.83
2017-10-18T19:10:34.632Z,13.85
2017-10-18T19:13:02.128Z,13.85
2017-10-18T19:15:29.621Z,13.87
2017-10-18T19:17:57.183Z,13.89
2017-10-18T19:20:24.695Z,13.91
2017-10-18T19:22:52.189Z,13.93
2017-10-18T19:25:19.736Z,13.89
2017-10-18T19:27:47.244Z,13.87
2017-10-18T19:30:14.737Z,13.87
2017-10-18T19:32:42.271Z,13.87
2017-10-18T19:35:09.764Z,13.85
2017-10-18T19:37:37.329Z,13.81
2017-10-18T19:40:04.875Z,13.75
2017-10-18T19:42:32.373Z,13.71
2017-10-18T19:44:59.876Z,13.66
2017-10-18T19:47:27.472Z,13.64
2017-10-18T19:49:54.960Z,13.62
2017-10-18T19:52:22.483Z,13.60
2017-10-18T19:54:50.043Z,13.57
2017-10-18T19:57:17.535Z,13.54
2017-10-18T19:59:45.020Z,13.51
2017-10-18T20:02:12.538Z,13.50
2017-10-18T20:04:40.043Z,13.47
2017-10-18T20:07:07.568Z,13.44
2017-10-18T20:09:35.057Z,13.40
2017-10-18T20:12:02.566Z,13.34
2017-10-18T20:14:30.087Z,13.28
2017-10-18T20:16:57.585Z,13.24
2017-10-18T20:19:25.070Z,13.20
2017-10-18T20:21:52.697Z,13.20
2017-10-18T20:24:20.205Z,13.21
2017-10-18T20:26:47.800Z,13.21
2017-10-18T20:29:15.324Z,13.19
2017-10-18T20:31:42.916Z,13.18
2017-10-18T20:34:10.412Z,13.17
2017-10-18T20:36:38.245Z,13.16
2017-10-18T20:39:05.805Z,13.15
2017-10-18T20:41:33.304Z,13.13
2017-10-18T20:44:00.916Z,13.13
2017-10-18T20:46:28.418Z,13.11
2017-10-18T20:48:55.918Z,13.08
2017-10-18T20:51:23.456Z,13.07
2017-10-18T20:53:50.950Z,13.05
2017-10-18T20:56:18.502Z,13.07
2017-10-18T20:58:46.374Z,13.07
2017-10-18T21:01:13.863Z,13.05
2017-10-18T21:03:41.365Z,13.01
2017-10-18T21:06:09.162Z,12.97
2017-10-18T21:08:36.661Z,12.94
2017-10-18T21:11:04.163Z,12.89
2017-10-18T21:13:32.161Z,12.86
2017-10-18T21:15:59.669Z,12.85
2017-10-18T21:18:27.156Z,12.82
2017-10-18T21:20:54.756Z,12.74
2017-10-18T21:23:22.274Z,12.68
2017-10-18T21:25:49.948Z,12.66
2017-10-18T21:28:17.595Z,12.66
2017-10-18T21:30:45.098Z,12.68
2017-10-18T21:33:12.592Z,12.66
2017-10-18T21:35:40.280Z,12.62
2017-10-18T21:38:07.777Z,12.57
2017-10-18T21:40:35.274Z,12.54
2017-10-18T21:43:03.080Z,12.50
2017-10-18T21:45:30.615Z,12.47
2017-10-18T21:47:58.108Z,12.42
2017-10-18T21:50:25.644Z,12.36
2017-10-18T21:52:53.139Z,12.34
2017-10-18T21:55:20.631Z,12.32
2017-10-18T21:57:48.230Z,12.28
2017-10-18T22:00:15.772Z,12.24
2017-10-18T22:02:43.274Z,12.18
2017-10-18T22:05:10.893Z,12.11
2017-10-18T22:07:38.389Z,12.05
2017-10-18T22:10:05.884Z,12.01
2017-10-18T22:12:33.561Z,11.97
2017-10-18T22:15:01.054Z,11.98
2017-10-18T22:17:28.547Z,11.98
2017-10-18T22:19:56.340Z,12.01
2017-10-18T22:22:23.827Z,12.01
2017-10-18T22:24:51.356Z,12.01
2017-10-18T22:27:18.920Z,12.01
2017-10-18T22:29:46.407Z,11.99
2017-10-18T22:32:13.935Z,11.98
2017-10-18T22:34:41.475Z,11.98
2017-10-18T22:37:09.052Z,11.96
2017-10-18T22:39:36.578Z,11.91
2017-10-18T22:42:04.172Z,11.89
2017-10-18T22:44:31.734Z,11.85
2017-10-18T22:46:59.235Z,11.85
2017-10-18T22:49:26.851Z,11.87
2017-10-18T22:51:54.344Z,11.85
2017-10-18T22:54:21.864Z,11.84
2017-10-18T22:56:49.438Z,11.80
2017-10-18T22:59:16.992Z,11.77
2017-10-18T23:01:44.488Z,11.76
2017-10-18T23:04:12.021Z,11.77
2017-10-18T23:06:39.521Z,11.75
2017-10-18T23:09:07.014Z,11.74
2017-10-18T23:11:34.689Z,11.73
2017-10-18T23:14:02.182Z,11.72
2017-10-18T23:16:29.726Z,11.70
2017-10-18T23:18:57.274Z,11.68
2017-10-18T23:21:24.770Z,11.64
2017-10-18T23:23:53.199Z,11.58
2017-10-18T23:26:20.839Z,11.56
2017-10-18T23:28:48.418Z,11.54
2017-10-18T23:31:15.914Z,11.52
2017-10-18T23:33:43.541Z,11.50
2017-10-18T23:36:11.101Z,11.49
2017-10-18T23:38:38.593Z,11.46
2017-10-18T23:41:06.136Z,11.44
2017-10-18T23:43:33.632Z,11.40
2017-10-18T23:46:01.122Z,11.38
2017-10-18T23:48:28.685Z,11.36
2017-10-18T23:50:56.210Z,11.34
2017-10-18T23:53:23.712Z,11.32
2017-10-18T23:55:51.228Z,11.33
2017-10-18T23:58:18.820Z,11.32
